Time;durP1;ratioP1;P1;durP2;ratioP2;P2;SDS_P1;SDS_P2;PMS_P1;PMS_P2;Temp;Humidity;BMP_temperature;BMP_pressure;BME280_temperature;BME280_humidity;BME280_pressure;Samples;Min_cycle;Max_cycle;Signal;HPM_P1;HPM_P2
2022/08/22 00:00:12;;;;;;;6.15;2.60;;;17.30;99.90;;;;;;5003620;28;20027;-57
2022/08/22 00:02:57;;;;;;;6.88;2.10;;;17.30;99.90;;;;;;4994080;28;20517;-56
2022/08/22 00:05:47;;;;;;;3.92;2.50;;;17.30;99.90;;;;;;4993795;28;20486;-57
2022/08/22 00:08:13;;;;;;;6.55;2.85;;;17.40;99.90;;;;;;5000305;28;20470;-56
2022/08/22 00:10:44;;;;;;;5.88;2.42;;;17.30;99.90;;;;;;5003853;28;20029;-56
2022/08/22 00:13:31;;;;;;;2.97;2.35;;;17.30;99.90;;;;;;4997987;28;20022;-58
2022/08/22 00:16:08;;;;;;;5.80;2.35;;;17.30;99.90;;;;;;5005656;28;20030;-55
2022/08/22 00:18:58;;;;;;;4.80;2.63;;;17.30;99.90;;;;;;4998208;28;20023;-58
2022/08/22 00:21:28;;;;;;;4.88;3.10;;;17.30;99.90;;;;;;4987417;28;20018;-57
2022/08/22 00:24:19;;;;;;;4.57;2.53;;;17.40;99.90;;;;;;4997506;28;20030;-56
2022/08/22 00:27:13;;;;;;;8.68;2.30;;;17.40;99.90;;;;;;5000749;28;20033;-56
2022/08/22 00:29:44;;;;;;;4.57;2.50;;;17.40;99.90;;;;;;4996255;28;20025;-56
2022/08/22 00:32:42;;;;;;;5.57;2.97;;;17.40;99.90;;;;;;5000353;28;20022;-58
2022/08/22 00:35:35;;;;;;;9.90;2.75;;;17.40;99.90;;;;;;4996703;28;20042;-56
2022/08/22 00:38:15;;;;;;;5.35;2.13;;;17.40;99.90;;;;;;4998247;28;20363;-58
2022/08/22 00:40:40;;;;;;;6.60;2.30;;;17.40;99.90;;;;;;5000129;28;20041;-59
2022/08/22 00:43:08;;;;;;;3.15;2.03;;;17.40;99.90;;;;;;5001344;28;20022;-58
2022/08/22 00:46:11;;;;;;;6.32;2.28;;;17.40;99.90;;;;;;5005900;28;20026;-58
2022/08/22 00:48:58;;;;;;;5.43;2.90;;;17.40;99.90;;;;;;4997594;28;20307;-58
2022/08/22 00:52:02;;;;;;;3.90;2.17;;;17.40;99.90;;;;;;5004741;28;20030;-58
2022/08/22 00:54:33;;;;;;;12.43;2.88;;;17.40;99.90;;;;;;4999159;28;20376;-56
2022/08/22 00:57:08;;;;;;;5.20;2.53;;;17.40;99.90;;;;;;5002664;28;20037;-58
2022/08/22 00:59:58;;;;;;;4.85;2.20;;;17.40;99.90;;;;;;5004308;28;20050;-58
2022/08/22 01:02:56;;;;;;;3.97;2.35;;;17.40;99.90;;;;;;4991414;28;20080;-59
2022/08/22 01:05:46;;;;;;;4.15;2.05;;;17.40;99.90;;;;;;4994648;28;20018;-59
2022/08/22 01:08:22;;;;;;;4.85;2.55;;;17.40;99.90;;;;;;5001778;28;20521;-57
2022/08/22 01:11:17;;;;;;;6.15;2.13;;;17.40;99.90;;;;;;5008413;28;20026;-60
2022/08/22 01:14:31;;;;;;;5.03;1.88;;;17.40;99.90;;;;;;5000826;28;20026;-59
2022/08/22 01:17:29;;;;;;;5.15;2.05;;;17.40;99.90;;;;;;4980457;28;20032;-59
2022/08/22 01:20:15;;;;;;;8.55;4.00;;;17.40;99.90;;;;;;5003940;28;20029;-59
2022/08/22 01:23:02;;;;;;;3.53;2.38;;;17.30;99.90;;;;;;5005281;28;20566;-57
2022/08/22 01:25:55;;;;;;;5.40;2.30;;;17.30;99.90;;;;;;5000016;28;20026;-57
2022/08/22 01:28:58;;;;;;;6.30;2.20;;;17.30;99.90;;;;;;4994249;28;20053;-58
2022/08/22 01:31:45;;;;;;;7.35;3.00;;;17.20;99.90;;;;;;4989140;28;20109;-58
2022/08/22 01:34:23;;;;;;;7.28;3.08;;;17.20;99.90;;;;;;4992887;28;20034;-57
2022/08/22 01:37:03;;;;;;;7.97;2.90;;;17.20;99.90;;;;;;4996703;28;20026;-60
2022/08/22 01:40:06;;;;;;;7.82;2.65;;;17.20;99.90;;;;;;4998587;28;20113;-57
2022/08/22 01:43:00;;;;;;;4.38;2.40;;;17.10;99.90;;;;;;4999742;28;20034;-59
2022/08/22 01:45:41;;;;;;;1.80;1.55;;;17.10;99.90;;;;;;4992256;28;20022;-58
2022/08/22 01:48:11;;;;;;;5.18;2.28;;;17.10;99.90;;;;;;5003691;28;20022;-58
2022/08/22 01:50:40;;;;;;;6.22;3.05;;;17.10;99.90;;;;;;5010558;28;20048;-55
2022/08/22 01:53:15;;;;;;;6.13;3.55;;;17.10;99.90;;;;;;5002574;28;20030;-59
2022/08/22 01:56:00;;;;;;;8.77;2.53;;;17.10;99.90;;;;;;5002994;28;20450;-56
2022/08/22 01:58:30;;;;;;;4.55;2.00;;;17.10;99.90;;;;;;5004360;28;20047;-57
2022/08/22 02:01:18;;;;;;;7.13;2.38;;;17.10;99.90;;;;;;5000732;28;20105;-58
2022/08/22 02:03:56;;;;;;;5.35;2.50;;;17.10;99.90;;;;;;5002315;28;20509;-56
2022/08/22 02:06:40;;;;;;;5.90;2.35;;;17.10;99.90;;;;;;4994145;28;20053;-58
2022/08/22 02:09:33;;;;;;;4.38;2.53;;;17.10;99.90;;;;;;4996858;28;20027;-57
2022/08/22 02:12:15;;;;;;;4.82;2.25;;;17.10;99.90;;;;;;5001817;28;20022;-59
2022/08/22 02:14:52;;;;;;;6.43;2.95;;;17.10;99.90;;;;;;4997818;28;20031;-58
2022/08/22 02:17:54;;;;;;;7.80;3.22;;;17.10;99.90;;;;;;4997519;28;20509;-57
2022/08/22 02:20:46;;;;;;;7.95;2.92;;;17.00;99.90;;;;;;4934295;28;20079;-55
2022/08/22 02:23:42;;;;;;;4.93;2.83;;;17.00;99.90;;;;;;5005398;28;20153;-57
2022/08/22 02:26:17;;;;;;;6.85;2.80;;;17.00;99.90;;;;;;5001749;28;20037;-58
2022/08/22 02:28:51;;;;;;;4.35;2.40;;;17.00;99.90;;;;;;5003373;28;20030;-59
2022/08/22 02:31:22;;;;;;;6.35;2.88;;;17.00;99.90;;;;;;4990055;28;20188;-56
2022/08/22 02:33:56;;;;;;;5.10;2.30;;;17.00;99.90;;;;;;5001022;28;20065;-54
2022/08/22 02:36:33;;;;;;;5.30;3.03;;;17.00;99.90;;;;;;4993077;28;20014;-57
2022/08/22 02:39:15;;;;;;;7.95;2.92;;;17.00;99.90;;;;;;5001844;28;20104;-59
2022/08/22 02:41:57;;;;;;;8.05;3.00;;;17.00;99.90;;;;;;5002672;28;20478;-58
2022/08/22 02:44:32;;;;;;;5.93;2.25;;;17.00;99.90;;;;;;5002976;28;20394;-58
2022/08/22 02:47:08;;;;;;;5.40;2.88;;;17.00;99.90;;;;;;5000489;28;20079;-56
2022/08/22 02:49:43;;;;;;;7.05;2.88;;;17.00;99.90;;;;;;4999357;28;20545;-59
2022/08/22 02:52:13;;;;;;;8.48;2.80;;;17.00;99.90;;;;;;5005643;28;20040;-58
2022/08/22 02:54:44;;;;;;;8.30;2.97;;;17.00;99.90;;;;;;4999297;28;20022;-56
2022/08/22 02:57:21;;;;;;;6.47;2.47;;;17.00;99.90;;;;;;5006856;28;20041;-60
2022/08/22 03:00:16;;;;;;;6.82;2.45;;;17.00;99.90;;;;;;4999476;28;20062;-58
2022/08/22 03:02:43;;;;;;;4.43;2.88;;;17.10;99.90;;;;;;4992893;28;20520;-54
2022/08/22 03:05:27;;;;;;;5.75;2.40;;;17.10;99.90;;;;;;5001938;28;21072;-55
2022/08/22 03:08:23;;;;;;;7.22;2.40;;;17.10;99.90;;;;;;5001253;28;20018;-59
2022/08/22 03:11:07;;;;;;;6.68;2.58;;;17.10;99.90;;;;;;5001869;28;20022;-60
2022/08/22 03:14:03;;;;;;;5.47;2.10;;;17.20;99.90;;;;;;4999144;28;20068;-57
2022/08/22 03:16:57;;;;;;;5.85;2.33;;;17.20;99.90;;;;;;4996413;28;20014;-59
2022/08/22 03:20:10;;;;;;;5.50;3.15;;;17.20;99.90;;;;;;4999127;28;20029;-58
2022/08/22 03:22:52;;;;;;;4.63;2.80;;;17.10;99.90;;;;;;4988377;28;20232;-59
2022/08/22 03:25:53;;;;;;;4.82;2.35;;;17.20;99.90;;;;;;5000908;28;20068;-59
2022/08/22 03:28:44;;;;;;;3.60;2.58;;;17.20;99.90;;;;;;4994235;28;20492;-60
2022/08/22 03:31:12;;;;;;;7.32;2.63;;;17.20;99.90;;;;;;4999963;28;20168;-56
2022/08/22 03:33:38;;;;;;;5.07;2.70;;;17.20;99.90;;;;;;5001298;28;20283;-59
2022/08/22 03:36:08;;;;;;;3.55;2.35;;;17.20;99.90;;;;;;5000794;28;20038;-59
2022/08/22 03:38:33;;;;;;;4.55;2.17;;;17.20;99.90;;;;;;5003127;28;20406;-58
2022/08/22 03:41:17;;;;;;;3.55;2.17;;;17.20;99.90;;;;;;5000175;28;20022;-58
2022/08/22 03:44:21;;;;;;;5.03;2.50;;;17.20;99.90;;;;;;5002212;28;20509;-59
2022/08/22 03:47:07;;;;;;;5.43;2.85;;;17.20;99.90;;;;;;4997803;28;20385;-57
2022/08/22 03:49:51;;;;;;;6.60;2.50;;;17.20;99.90;;;;;;4996077;28;20058;-59
2022/08/22 03:53:06;;;;;;;6.82;2.72;;;17.10;99.90;;;;;;4995121;28;20018;-60
2022/08/22 03:55:49;;;;;;;7.22;2.83;;;17.10;99.90;;;;;;4993920;28;20026;-58
2022/08/22 03:58:35;;;;;;;7.18;2.97;;;17.10;99.90;;;;;;4988296;28;20272;-57
2022/08/22 04:01:39;;;;;;;11.43;3.25;;;17.10;99.90;;;;;;5001222;28;20518;-57
2022/08/22 04:04:27;;;;;;;9.77;3.00;;;17.10;99.90;;;;;;4999277;28;20068;-60
2022/08/22 04:07:18;;;;;;;4.40;2.53;;;17.10;99.90;;;;;;5004192;28;20029;-57
2022/08/22 04:09:43;;;;;;;5.65;2.80;;;17.10;99.90;;;;;;4992749;28;20022;-58
2022/08/22 04:13:06;;;;;;;7.28;2.85;;;17.10;99.90;;;;;;5004527;28;20026;-57
2022/08/22 04:15:48;;;;;;;5.00;2.35;;;17.10;99.90;;;;;;4923833;29;20027;-58
2022/08/22 04:18:50;;;;;;;3.67;2.65;;;17.20;99.90;;;;;;4928849;29;20070;-58
2022/08/22 04:21:57;;;;;;;5.32;2.53;;;17.10;99.90;;;;;;4979691;28;20409;-58
2022/08/22 04:25:02;;;;;;;9.32;3.08;;;17.20;99.90;;;;;;4989297;28;20128;-58
2022/08/22 04:28:02;;;;;;;6.72;2.58;;;17.20;99.90;;;;;;4989274;28;20532;-55
2022/08/22 04:30:39;;;;;;;8.05;3.13;;;17.20;99.90;;;;;;4996930;28;20030;-54
2022/08/22 04:33:13;;;;;;;5.72;2.88;;;17.20;99.90;;;;;;5003584;28;20036;-59
2022/08/22 04:36:02;;;;;;;8.07;3.42;;;17.20;99.90;;;;;;4997595;28;20153;-58
2022/08/22 04:38:38;;;;;;;5.45;2.63;;;17.10;99.90;;;;;;4992782;28;20022;-58
2022/08/22 04:41:16;;;;;;;5.03;2.72;;;17.20;99.90;;;;;;5000001;28;20023;-57
2022/08/22 04:43:58;;;;;;;6.95;2.80;;;17.10;99.90;;;;;;5001710;28;20033;-55
2022/08/22 04:46:44;;;;;;;8.20;3.10;;;17.10;99.90;;;;;;4990324;28;20457;-58
2022/08/22 04:49:32;;;;;;;6.97;2.85;;;17.20;99.90;;;;;;4999195;28;20049;-57
2022/08/22 04:52:04;;;;;;;4.97;2.67;;;17.10;99.90;;;;;;4999483;28;20437;-59
2022/08/22 04:54:59;;;;;;;7.88;3.10;;;17.10;99.90;;;;;;5000799;28;20022;-56
2022/08/22 04:57:52;;;;;;;5.03;2.65;;;17.20;99.90;;;;;;4994727;28;20018;-58
2022/08/22 05:00:18;;;;;;;6.80;3.00;;;17.10;99.90;;;;;;4991027;28;20030;-58
2022/08/22 05:02:51;;;;;;;6.75;3.25;;;17.10;99.90;;;;;;4997591;28;20386;-57
2022/08/22 05:05:29;;;;;;;7.45;3.10;;;17.10;99.90;;;;;;4986873;28;20109;-56
2022/08/22 05:07:58;;;;;;;7.60;2.58;;;17.10;99.90;;;;;;4999147;28;20359;-55
2022/08/22 05:10:36;;;;;;;5.13;2.92;;;17.10;99.90;;;;;;5001016;28;20014;-57
2022/08/22 05:13:07;;;;;;;5.68;2.47;;;17.10;99.90;;;;;;4999400;28;20113;-57
2022/08/22 05:15:36;;;;;;;7.68;3.65;;;17.10;99.90;;;;;;5001482;28;20014;-54
2022/08/22 05:18:09;;;;;;;9.90;3.67;;;17.10;99.90;;;;;;5000976;28;20018;-57
2022/08/22 05:20:37;;;;;;;8.60;3.85;;;17.10;99.90;;;;;;5000208;28;20537;-57
2022/08/22 05:23:16;;;;;;;9.35;3.40;;;17.10;99.90;;;;;;4997589;28;20041;-56
2022/08/22 05:25:45;;;;;;;6.80;2.67;;;17.10;99.90;;;;;;5000022;28;20030;-59
2022/08/22 05:28:25;;;;;;;4.97;2.75;;;17.10;99.90;;;;;;4998126;28;20030;-59
2022/08/22 05:30:52;;;;;;;9.18;4.07;;;17.10;99.90;;;;;;5000199;28;20304;-59
2022/08/22 05:33:24;;;;;;;7.18;2.95;;;17.10;99.90;;;;;;5006529;28;20026;-57
2022/08/22 05:35:57;;;;;;;8.00;2.92;;;17.10;99.90;;;;;;5001328;28;20050;-57
2022/08/22 05:38:29;;;;;;;8.02;3.40;;;17.10;99.90;;;;;;5006783;28;20029;-57
2022/08/22 05:41:05;;;;;;;3.50;2.90;;;17.20;99.90;;;;;;5002900;28;20102;-58
2022/08/22 05:43:33;;;;;;;;;;;17.20;99.90;;;;;;5006959;28;20031;-57
2022/08/22 05:46:00;;;;;;;4.30;2.80;;;17.20;99.90;;;;;;5002568;28;19905;-58
2022/08/22 05:48:40;;;;;;;7.55;2.58;;;17.20;99.90;;;;;;5003054;28;20398;-57
2022/08/22 05:51:23;;;;;;;7.38;3.35;;;17.20;99.90;;;;;;5002776;28;20104;-56
2022/08/22 05:53:58;;;;;;;4.43;2.45;;;17.30;99.90;;;;;;5003110;28;20478;-59
2022/08/22 05:56:44;;;;;;;7.80;3.22;;;17.30;99.90;;;;;;5004330;28;20076;-56
2022/08/22 05:59:31;;;;;;;4.03;2.35;;;17.30;99.90;;;;;;5003985;28;20426;-56
2022/08/22 06:02:19;;;;;;;6.47;2.95;;;17.30;99.90;;;;;;5002531;28;20038;-56
2022/08/22 06:04:57;;;;;;;5.45;2.67;;;17.30;99.90;;;;;;4996826;28;20022;-57
2022/08/22 06:07:47;;;;;;;12.80;3.97;;;17.30;99.90;;;;;;4995713;28;20537;-52
2022/08/22 06:10:40;;;;;;;9.10;3.20;;;17.40;99.90;;;;;;5003844;28;20060;-54
2022/08/22 06:13:14;;;;;;;9.20;3.85;;;17.40;99.90;;;;;;5001551;28;20022;-58
2022/08/22 06:15:53;;;;;;;19.60;4.70;;;17.40;99.90;;;;;;5003924;28;20022;-59
2022/08/22 06:18:24;;;;;;;17.40;4.68;;;17.50;99.90;;;;;;5004019;28;20141;-57
2022/08/22 06:21:05;;;;;;;16.08;4.18;;;17.50;99.90;;;;;;5003816;28;20014;-58
2022/08/22 06:23:42;;;;;;;20.70;5.25;;;17.50;99.90;;;;;;4998023;28;20033;-58
2022/08/22 06:26:10;;;;;;;15.40;4.82;;;17.50;99.90;;;;;;5009767;28;20030;-57
2022/08/22 06:28:43;;;;;;;11.88;3.83;;;17.60;99.90;;;;;;5000568;28;20553;-57
2022/08/22 06:31:20;;;;;;;19.30;5.15;;;17.60;99.90;;;;;;5002788;28;20169;-58
2022/08/22 06:33:56;;;;;;;11.07;3.22;;;17.60;99.90;;;;;;5001797;28;20076;-57
2022/08/22 06:36:30;;;;;;;8.68;2.75;;;17.70;99.90;;;;;;4991647;28;20022;-59
2022/08/22 06:39:01;;;;;;;9.65;2.35;;;17.70;99.90;;;;;;5002410;28;20076;-58
2022/08/22 06:41:31;;;;;;;5.30;2.22;;;17.80;99.90;;;;;;5002629;28;20104;-57
2022/08/22 06:43:57;;;;;;;7.65;2.97;;;17.90;99.90;;;;;;5002974;28;20169;-57
2022/08/22 06:46:27;;;;;;;6.82;2.90;;;18.00;99.90;;;;;;5003687;28;20018;-59
2022/08/22 06:48:55;;;;;;;12.80;3.72;;;18.10;99.90;;;;;;5001264;28;20080;-59
2022/08/22 06:51:25;;;;;;;10.45;3.05;;;18.20;99.90;;;;;;5002704;28;20036;-60
2022/08/22 06:53:55;;;;;;;9.88;3.88;;;18.30;99.90;;;;;;5003173;28;20052;-59
2022/08/22 06:56:24;;;;;;;6.18;2.63;;;18.40;99.90;;;;;;5006902;28;20462;-59
2022/08/22 06:58:55;;;;;;;2.80;1.92;;;18.50;99.90;;;;;;4997241;28;20022;-59
2022/08/22 07:01:31;;;;;;;6.72;2.65;;;18.70;99.90;;;;;;4996108;28;20478;-60
2022/08/22 07:04:03;;;;;;;2.83;1.65;;;18.90;99.90;;;;;;5002554;28;20390;-60
2022/08/22 07:06:32;;;;;;;4.00;1.65;;;19.00;99.90;;;;;;5003057;28;20025;-59
2022/08/22 07:08:58;;;;;;;8.07;2.22;;;19.10;99.90;;;;;;5001601;28;20179;-58
2022/08/22 07:11:42;;;;;;;5.82;1.80;;;19.20;99.90;;;;;;4996044;28;20436;-60
2022/08/22 07:14:11;;;;;;;9.18;1.80;;;19.50;99.90;;;;;;4999701;28;20026;-58
2022/08/22 07:16:39;;;;;;;6.65;2.22;;;19.60;99.90;;;;;;5005316;28;20482;-59
2022/08/22 07:19:06;;;;;;;15.50;3.58;;;19.70;99.90;;;;;;5000692;28;20026;-61
2022/08/22 07:21:46;;;;;;;5.30;1.85;;;19.90;99.90;;;;;;4998577;28;20158;-59
2022/08/22 07:24:24;;;;;;;2.88;1.40;;;20.00;99.90;;;;;;5001888;28;20581;-58
2022/08/22 07:27:22;;;;;;;2.95;1.65;;;20.00;99.90;;;;;;5000883;28;20030;-58
2022/08/22 07:30:05;;;;;;;2.63;1.02;;;20.00;99.90;;;;;;4997912;28;20053;-58
2022/08/22 07:32:40;;;;;;;5.93;1.50;;;20.20;99.90;;;;;;4996814;28;20029;-59
2022/08/22 07:35:09;;;;;;;3.63;0.80;;;20.30;99.90;;;;;;4999520;28;20049;-59
2022/08/22 07:37:46;;;;;;;3.90;1.23;;;20.30;99.90;;;;;;5003923;28;20026;-60
2022/08/22 07:40:27;;;;;;;5.38;1.42;;;20.30;99.90;;;;;;4999048;28;20809;-54
2022/08/22 07:43:08;;;;;;;3.78;1.77;;;20.30;99.90;;;;;;5005963;28;20113;-60
2022/08/22 07:45:46;;;;;;;3.28;1.88;;;20.30;99.90;;;;;;4997482;28;20029;-59
2022/08/22 07:48:29;;;;;;;4.18;1.38;;;20.40;99.90;;;;;;5001824;28;20022;-59
2022/08/22 07:51:05;;;;;;;2.95;1.52;;;20.40;99.90;;;;;;4999619;28;20542;-61
2022/08/22 07:54:00;;;;;;;2.20;1.40;;;20.50;99.90;;;;;;5001692;28;20052;-60
2022/08/22 07:56:32;;;;;;;5.70;1.73;;;20.70;99.90;;;;;;4993604;28;20021;-60
2022/08/22 07:59:13;;;;;;;3.65;1.70;;;20.90;99.90;;;;;;5001527;28;20022;-58
2022/08/22 08:01:44;;;;;;;3.83;1.50;;;21.10;99.90;;;;;;5001689;28;20053;-63
2022/08/22 08:04:15;;;;;;;4.30;1.45;;;21.40;99.90;;;;;;4998550;28;20552;-59
2022/08/22 08:06:41;;;;;;;3.28;1.75;;;21.70;99.90;;;;;;5003492;28;20080;-60
2022/08/22 08:09:14;;;;;;;4.13;1.48;;;21.80;99.90;;;;;;4999290;28;20212;-60
2022/08/22 08:11:42;;;;;;;3.30;1.70;;;21.90;99.90;;;;;;5004276;28;20052;-59
2022/08/22 08:14:11;;;;;;;6.22;1.90;;;21.90;99.90;;;;;;4998973;28;20120;-60
2022/08/22 08:16:46;;;;;;;6.20;2.25;;;21.90;99.90;;;;;;5004483;28;20175;-59
2022/08/22 08:19:15;;;;;;;4.90;1.70;;;22.10;99.90;;;;;;4998538;28;20520;-58
2022/08/22 08:21:50;;;;;;;4.40;1.60;;;22.30;99.90;;;;;;4997613;28;20034;-57
2022/08/22 08:24:28;;;;;;;7.30;1.52;;;22.50;99.90;;;;;;4988129;28;20040;-58
2022/08/22 08:29:53;;;;;;;4.28;1.95;;;22.80;99.90;;;;;;5001873;28;20095;-59
2022/08/22 08:32:21;;;;;;;4.93;2.00;;;23.00;99.90;;;;;;4992474;28;20113;-60
2022/08/22 08:34:47;;;;;;;4.22;1.90;;;23.20;99.90;;;;;;5000080;28;20025;-59
2022/08/22 08:37:40;;;;;;;3.67;1.52;;;23.30;99.90;;;;;;4999998;28;20033;-58
2022/08/22 08:40:22;;;;;;;5.40;1.48;;;23.50;99.90;;;;;;4998886;28;20017;-57
2022/08/22 08:46:27;;;;;;;4.93;1.45;;;23.70;99.90;;;;;;4997144;28;20449;-57
2022/08/22 08:49:09;;;;;;;5.18;1.90;;;23.80;99.90;;;;;;4994377;28;20018;-59
2022/08/22 08:51:49;;;;;;;3.83;1.52;;;24.00;99.90;;;;;;5001255;28;20072;-58
2022/08/22 08:54:50;;;;;;;5.55;2.38;;;24.00;99.90;;;;;;4999017;28;20022;-60
2022/08/22 08:57:37;;;;;;;5.68;2.22;;;23.90;99.90;;;;;;4993927;28;20023;-58
2022/08/22 09:00:14;;;;;;;7.05;1.77;;;23.90;99.90;;;;;;5006019;28;20079;-58
2022/08/22 09:03:01;;;;;;;5.25;1.75;;;23.90;99.90;;;;;;4997844;28;20454;-58
2022/08/22 09:06:01;;;;;;;4.35;1.70;;;24.00;99.90;;;;;;4992418;28;20474;-60
2022/08/22 09:08:35;;;;;;;4.20;1.73;;;23.90;99.90;;;;;;4996340;28;20018;-57
2022/08/22 09:11:20;;;;;;;6.05;1.95;;;23.90;99.90;;;;;;5003792;28;20105;-60
2022/08/22 09:13:57;;;;;;;3.78;1.70;;;23.90;99.90;;;;;;5005055;28;20033;-59
2022/08/22 09:16:51;;;;;;;4.75;1.75;;;24.00;99.90;;;;;;5005252;28;20025;-58
2022/08/22 09:19:23;;;;;;;1.88;1.42;;;24.10;99.90;;;;;;4996576;28;20018;-58
2022/08/22 09:21:54;;;;;;;4.65;2.20;;;24.10;99.90;;;;;;5000956;28;20026;-57
2022/08/22 09:24:35;;;;;;;5.20;1.67;;;24.10;99.90;;;;;;4992581;28;20028;-58
2022/08/22 09:27:12;;;;;;;4.43;1.85;;;24.10;99.90;;;;;;5004688;28;20023;-59
2022/08/22 09:29:53;;;;;;;5.70;1.80;;;24.10;99.90;;;;;;5004801;28;20093;-59
2022/08/22 09:32:43;;;;;;;5.80;2.13;;;24.10;99.90;;;;;;4995536;28;20390;-59
2022/08/22 09:35:17;;;;;;;2.05;1.25;;;24.10;99.70;;;;;;5001965;28;20030;-59
2022/08/22 09:37:52;;;;;;;7.00;2.15;;;24.00;99.90;;;;;;5007511;28;20075;-59
2022/08/22 09:40:48;;;;;;;6.50;1.73;;;24.00;99.90;;;;;;4997492;28;20026;-57
2022/08/22 09:43:19;;;;;;;;;;;24.20;99.90;;;;;;4994017;28;20057;-59
2022/08/22 09:46:19;;;;;;;4.28;1.67;;;24.20;99.90;;;;;;5001317;28;19906;-59
2022/08/22 09:48:59;;;;;;;3.70;1.85;;;24.30;99.90;;;;;;4995948;28;20375;-60
2022/08/22 09:51:37;;;;;;;7.40;2.03;;;24.40;99.70;;;;;;4994538;28;20218;-58
2022/08/22 09:54:18;;;;;;;4.85;1.63;;;24.30;99.10;;;;;;5003247;28;20022;-57
2022/08/22 09:56:54;;;;;;;3.40;1.23;;;24.30;98.80;;;;;;5004731;28;20025;-59
2022/08/22 09:59:31;;;;;;;4.30;1.75;;;24.40;98.40;;;;;;5002247;28;20022;-59
2022/08/22 10:02:22;;;;;;;3.25;1.60;;;24.40;97.80;;;;;;5002919;28;20049;-61
2022/08/22 10:05:10;;;;;;;3.15;1.73;;;24.30;97.90;;;;;;4973890;28;20066;-55
2022/08/22 10:07:48;;;;;;;2.58;1.42;;;24.20;98.10;;;;;;4997663;28;20176;-56
2022/08/22 10:10:38;;;;;;;2.50;1.20;;;24.30;98.40;;;;;;5004350;28;20018;-57
2022/08/22 10:13:26;;;;;;;4.63;1.23;;;24.30;97.50;;;;;;5002271;28;20513;-58
2022/08/22 10:16:14;;;;;;;4.78;1.95;;;24.50;97.50;;;;;;5001384;28;20072;-59
2022/08/22 10:19:21;;;;;;;5.22;1.80;;;24.50;96.80;;;;;;5004037;28;20028;-56
2022/08/22 10:22:23;;;;;;;2.40;1.20;;;24.40;97.10;;;;;;4959897;28;20106;-58
2022/08/22 10:24:52;;;;;;;3.35;1.50;;;24.20;96.60;;;;;;4998864;28;20124;-61
2022/08/22 10:27:54;;;;;;;6.80;1.98;;;24.20;96.70;;;;;;5003964;28;20457;-61
2022/08/22 10:30:45;;;;;;;2.45;1.25;;;24.30;96.50;;;;;;4992092;28;20384;-59
2022/08/22 10:33:32;;;;;;;5.82;1.75;;;24.30;96.70;;;;;;5006368;28;20027;-59
2022/08/22 10:36:09;;;;;;;5.50;2.83;;;24.20;96.40;;;;;;4999810;28;20048;-59
2022/08/22 10:38:49;;;;;;;9.07;2.40;;;24.10;96.90;;;;;;5004458;28;20054;-58
2022/08/22 10:41:15;;;;;;;6.32;1.67;;;24.20;97.00;;;;;;4989929;28;20018;-58
2022/08/22 10:44:20;;;;;;;3.92;1.80;;;24.20;96.80;;;;;;5003274;28;20030;-61
2022/08/22 10:47:04;;;;;;;3.53;1.55;;;24.30;97.00;;;;;;4999067;28;20026;-60
2022/08/22 10:49:45;;;;;;;3.75;1.67;;;24.50;97.00;;;;;;4997956;28;20034;-59
2022/08/22 10:52:28;;;;;;;2.15;1.23;;;24.60;96.30;;;;;;4999984;28;20026;-60
2022/08/22 10:54:56;;;;;;;2.85;1.67;;;24.70;96.20;;;;;;5005543;28;20026;-60
2022/08/22 10:57:25;;;;;;;5.47;1.55;;;24.70;95.70;;;;;;4999984;28;20501;-59
2022/08/22 11:00:09;;;;;;;7.00;2.00;;;24.60;95.90;;;;;;5007608;28;20060;-58
2022/08/22 11:02:59;;;;;;;3.13;1.52;;;24.50;95.70;;;;;;4999473;28;20106;-61
2022/08/22 11:05:35;;;;;;;3.58;1.58;;;24.50;95.80;;;;;;4990242;28;20097;-58
2022/08/22 11:08:46;;;;;;;2.90;1.80;;;24.40;96.00;;;;;;4999799;28;20034;-59
2022/08/22 11:11:38;;;;;;;4.22;1.73;;;24.20;95.80;;;;;;4999780;28;20030;-59
2022/08/22 11:14:44;;;;;;;4.00;1.88;;;24.10;96.40;;;;;;5000694;28;20033;-59
2022/08/22 11:17:21;;;;;;;4.85;1.60;;;24.20;96.60;;;;;;5006581;28;20109;-58
2022/08/22 11:20:13;;;;;;;5.30;1.77;;;24.20;96.60;;;;;;4999255;28;20014;-58
2022/08/22 11:22:45;;;;;;;2.22;1.52;;;24.40;96.30;;;;;;4992905;28;20029;-58
2022/08/22 11:25:34;;;;;;;3.03;1.27;;;24.60;96.30;;;;;;5002060;28;20049;-55
2022/08/22 11:28:24;;;;;;;4.00;1.90;;;24.80;96.00;;;;;;5000670;28;20026;-57
2022/08/22 11:31:15;;;;;;;4.07;1.80;;;24.90;95.80;;;;;;4997135;28;20113;-59
2022/08/22 11:33:57;;;;;;;6.28;1.92;;;25.00;95.50;;;;;;5000008;28;20046;-57
2022/08/22 11:36:35;;;;;;;7.95;1.70;;;25.20;95.40;;;;;;4989991;28;20108;-59
2022/08/22 11:39:19;;;;;;;1.95;1.45;;;25.20;95.30;;;;;;5001066;28;20054;-61
2022/08/22 11:41:53;;;;;;;5.53;1.88;;;25.30;95.10;;;;;;5001893;28;20026;-61
2022/08/22 11:44:32;;;;;;;2.22;1.30;;;25.40;94.90;;;;;;4992838;28;20110;-60
2022/08/22 11:47:00;;;;;;;4.25;1.50;;;25.50;94.50;;;;;;5000626;28;20049;-59
2022/08/22 11:49:49;;;;;;;3.28;1.63;;;25.50;94.10;;;;;;5001794;28;20028;-61
2022/08/22 11:53:01;;;;;;;4.47;1.63;;;25.50;94.20;;;;;;4994482;28;20121;-58
2022/08/22 11:55:31;;;;;;;3.13;1.20;;;25.60;93.40;;;;;;4962501;28;20042;-60
2022/08/22 11:58:12;;;;;;;2.50;1.13;;;25.70;93.60;;;;;;4999640;28;20099;-59
2022/08/22 12:00:54;;;;;;;3.80;1.45;;;25.60;94.10;;;;;;5001835;28;20030;-57
2022/08/22 12:04:11;;;;;;;4.30;1.95;;;25.40;93.90;;;;;;4997914;28;20552;-61
2022/08/22 12:06:40;;;;;;;3.90;1.13;;;25.30;94.90;;;;;;4964588;28;20041;-60
2022/08/22 12:09:36;;;;;;;3.30;1.67;;;25.30;94.10;;;;;;4999122;28;20018;-57
2022/08/22 12:12:30;;;;;;;3.70;1.52;;;25.30;93.70;;;;;;5004882;28;20422;-59
2022/08/22 12:15:07;;;;;;;3.95;1.50;;;25.40;94.30;;;;;;4995247;28;20049;-59
2022/08/22 12:17:45;;;;;;;1.63;1.23;;;25.60;94.80;;;;;;5001853;28;20023;-61
2022/08/22 12:20:37;;;;;;;5.95;1.80;;;25.80;94.20;;;;;;5001245;28;20041;-60
2022/08/22 12:23:35;;;;;;;5.50;1.50;;;25.90;94.60;;;;;;4997302;28;20056;-61
2022/08/22 12:26:26;;;;;;;1.63;1.10;;;26.00;94.10;;;;;;5003947;28;20080;-59
2022/08/22 12:29:06;;;;;;;2.88;1.85;;;26.00;93.50;;;;;;4997910;28;20026;-59
2022/08/22 12:31:38;;;;;;;2.92;1.63;;;25.90;93.80;;;;;;5000828;28;20651;-60
2022/08/22 12:34:13;;;;;;;2.80;1.67;;;25.80;93.90;;;;;;4998721;28;20067;-61
2022/08/22 12:37:01;;;;;;;4.18;1.60;;;25.70;93.80;;;;;;5000129;28;20409;-60
2022/08/22 12:39:39;;;;;;;5.47;1.60;;;25.60;93.40;;;;;;4992585;28;20555;-60
2022/08/22 12:42:50;;;;;;;7.72;2.00;;;25.50;93.70;;;;;;4999226;28;20025;-59
2022/08/22 12:45:41;;;;;;;7.13;1.80;;;25.40;94.00;;;;;;4975398;28;20191;-59
2022/08/22 12:48:16;;;;;;;4.68;1.77;;;25.40;93.80;;;;;;4978274;28;20106;-57
2022/08/22 12:50:55;;;;;;;3.08;1.63;;;25.30;93.80;;;;;;4993851;28;20038;-60
2022/08/22 12:53:52;;;;;;;3.47;1.38;;;25.40;94.20;;;;;;4988069;28;20072;-59
2022/08/22 12:56:36;;;;;;;5.88;1.58;;;25.50;94.50;;;;;;4999675;28;20098;-58
2022/08/22 12:59:11;;;;;;;3.80;1.52;;;25.50;93.60;;;;;;5000652;28;20156;-60
2022/08/22 13:01:43;;;;;;;2.45;1.45;;;25.60;93.70;;;;;;5001157;28;20018;-58
2022/08/22 13:04:20;;;;;;;3.88;1.73;;;25.70;92.90;;;;;;4997982;28;20092;-60
2022/08/22 13:06:57;;;;;;;6.22;2.15;;;25.70;93.20;;;;;;5003746;28;20088;-56
2022/08/22 13:09:29;;;;;;;4.10;1.55;;;25.60;93.20;;;;;;4995462;28;20109;-59
2022/08/22 13:12:00;;;;;;;35.35;5.57;;;25.50;93.00;;;;;;5004680;28;20080;-60
2022/08/22 13:14:29;;;;;;;4.35;1.80;;;25.50;92.90;;;;;;4997598;28;20022;-59
2022/08/22 13:16:59;;;;;;;7.47;2.25;;;25.40;92.90;;;;;;5004441;28;20014;-58
2022/08/22 13:19:30;;;;;;;15.48;3.25;;;25.50;93.10;;;;;;4997905;28;20436;-58
2022/08/22 13:22:11;;;;;;;3.55;1.48;;;25.50;92.80;;;;;;4998007;28;20073;-58
2022/08/22 13:24:57;;;;;;;2.30;1.65;;;25.80;92.30;;;;;;5001270;28;20041;-61
2022/08/22 13:27:35;;;;;;;2.22;1.52;;;26.00;92.00;;;;;;4999776;28;20026;-61
2022/08/22 13:30:07;;;;;;;3.00;1.52;;;26.20;92.00;;;;;;4999246;28;20026;-62
2022/08/22 13:32:45;;;;;;;2.03;1.40;;;26.20;91.90;;;;;;4995285;28;20488;-59
2022/08/22 13:35:21;;;;;;;3.42;1.55;;;26.20;91.60;;;;;;4998110;28;20031;-61
2022/08/22 13:37:51;;;;;;;4.30;1.90;;;26.20;92.10;;;;;;5004351;28;20024;-61
2022/08/22 13:40:31;;;;;;;4.50;1.63;;;26.20;91.90;;;;;;4993366;28;20451;-61
2022/08/22 13:43:11;;;;;;;6.55;1.35;;;26.10;91.60;;;;;;5004998;28;20497;-60
2022/08/22 13:45:40;;;;;;;3.45;1.83;;;26.10;91.40;;;;;;4997658;28;20073;-60
2022/08/22 13:48:12;;;;;;;2.38;1.33;;;26.00;91.40;;;;;;4998831;28;20030;-60
2022/08/22 13:51:04;;;;;;;3.88;1.50;;;25.90;91.00;;;;;;5002156;28;20053;-61
2022/08/22 13:53:43;;;;;;;2.17;1.33;;;25.90;91.30;;;;;;4992383;28;20026;-61
2022/08/22 13:56:19;;;;;;;2.30;1.35;;;25.90;91.80;;;;;;5002790;28;20548;-60
2022/08/22 13:58:52;;;;;;;3.15;1.50;;;26.00;91.40;;;;;;5004405;28;20033;-61
2022/08/22 14:01:21;;;;;;;1.60;1.42;;;25.90;91.40;;;;;;4994193;28;20065;-57
2022/08/22 14:03:54;;;;;;;2.88;1.42;;;25.90;91.80;;;;;;5004441;28;20438;-60
2022/08/22 14:06:36;;;;;;;2.28;1.58;;;26.00;91.10;;;;;;4995922;28;20072;-61